createdAt,value
2022-12-01T00:01:54.519Z,40.50
2022-12-01T00:04:23.169Z,39.95
2022-12-01T00:06:55.593Z,38.25
2022-12-01T00:09:42.527Z,40.45
2022-12-01T00:12:10.836Z,39.97
2022-12-01T00:14:39.198Z,41.20
2022-12-01T00:17:07.515Z,41.88
2022-12-01T00:19:36.255Z,43.03
2022-12-01T00:22:04.621Z,43.22
2022-12-01T00:24:33.596Z,37.70
2022-12-01T00:27:03.138Z,37.45
2022-12-01T00:29:31.491Z,40.20
2022-12-01T00:32:00.241Z,40.78
2022-12-01T00:34:28.861Z,41.88
2022-12-01T00:36:57.292Z,41.22
2022-12-01T00:39:25.648Z,40.55
2022-12-01T00:41:54.061Z,40.65
2022-12-01T00:44:22.468Z,41.58
2022-12-01T00:46:50.858Z,40.13
2022-12-01T00:49:19.239Z,40.90
2022-12-01T00:51:47.626Z,42.10
2022-12-01T00:54:15.972Z,43.03
2022-12-01T00:56:44.902Z,42.78
2022-12-01T00:59:13.739Z,45.55
2022-12-01T01:01:42.165Z,40.17
2022-12-01T01:04:10.562Z,44.15
2022-12-01T01:06:39.676Z,42.20
2022-12-01T01:09:08.105Z,42.40
2022-12-01T01:11:36.749Z,45.42
2022-12-01T01:14:06.568Z,41.60
2022-12-01T01:16:35.961Z,43.08
2022-12-01T01:19:04.426Z,43.55
2022-12-01T01:21:33.911Z,43.03
2022-12-01T01:24:02.273Z,43.72
2022-12-01T01:26:31.838Z,43.92
2022-12-01T01:29:03.085Z,42.85
2022-12-01T01:31:31.474Z,43.20
2022-12-01T01:33:59.907Z,44.35
2022-12-01T01:36:28.352Z,42.55
2022-12-01T01:38:56.904Z,45.13
2022-12-01T01:41:26.918Z,43.25
2022-12-01T01:43:57.449Z,43.72
2022-12-01T01:46:36.126Z,42.75
2022-12-01T01:49:14.559Z,45.17
2022-12-01T01:52:08.936Z,43.55
2022-12-01T01:54:42.458Z,44.10
2022-12-01T01:57:14.804Z,45.13
2022-12-01T01:59:49.167Z,46.20
2022-12-01T02:02:17.709Z,43.95
2022-12-01T02:04:51.450Z,44.15
2022-12-01T02:07:20.769Z,43.08
2022-12-01T02:09:49.941Z,44.88
2022-12-01T02:12:50.052Z,45.13
2022-12-01T02:15:39.102Z,44.50
2022-12-01T02:18:27.784Z,43.05
2022-12-01T02:21:14.417Z,44.40
2022-12-01T02:24:02.027Z,44.45
2022-12-01T02:26:46.694Z,41.28
2022-12-01T02:29:46.309Z,40.70
2022-12-01T02:32:52.602Z,42.85
2022-12-01T02:35:35.039Z,44.55
2022-12-01T02:38:12.993Z,41.03
2022-12-01T02:41:20.340Z,43.03
2022-12-01T02:44:09.124Z,43.67
2022-12-01T02:46:41.910Z,42.92
2022-12-01T02:52:46.510Z,40.10
2022-12-01T02:55:14.810Z,44.05
2022-12-01T02:57:43.124Z,39.35
2022-12-01T03:00:13.850Z,42.25
2022-12-01T03:05:35.746Z,41.10
2022-12-01T03:08:46.145Z,37.42
2022-12-01T03:11:28.804Z,40.88
2022-12-01T03:14:24.520Z,41.00
2022-12-01T03:16:54.576Z,40.58
2022-12-01T03:19:35.142Z,43.53
2022-12-01T03:22:27.198Z,40.90
2022-12-01T03:24:57.424Z,42.40
2022-12-01T03:27:31.490Z,41.33
2022-12-01T03:30:02.475Z,42.33
2022-12-01T03:32:41.388Z,41.45
2022-12-01T03:35:19.554Z,41.63
2022-12-01T03:37:54.781Z,41.08
2022-12-01T03:40:30.789Z,40.70
2022-12-01T03:43:03.787Z,39.28
2022-12-01T03:45:35.453Z,39.33
2022-12-01T03:48:04.546Z,40.65
2022-12-01T03:50:59.725Z,40.28
2022-12-01T03:53:35.524Z,38.38
2022-12-01T03:56:07.161Z,38.70
2022-12-01T03:58:43.005Z,39.72
2022-12-01T04:01:12.151Z,39.10
2022-12-01T04:03:41.008Z,39.80
2022-12-01T04:06:10.323Z,36.97
2022-12-01T04:08:39.729Z,38.67
2022-12-01T04:11:32.422Z,36.33
2022-12-01T04:14:02.039Z,36.03
2022-12-01T04:16:31.126Z,37.08
2022-12-01T04:18:59.656Z,35.17
2022-12-01T04:21:28.458Z,33.72
2022-12-01T04:24:00.146Z,36.30
2022-12-01T04:26:32.282Z,33.40
2022-12-01T04:29:02.039Z,33.00
2022-12-01T04:31:31.080Z,35.20
2022-12-01T04:34:00.124Z,32.85
2022-12-01T04:36:31.438Z,31.88
2022-12-01T04:39:00.541Z,33.13
2022-12-01T04:41:29.002Z,31.58
2022-12-01T04:43:57.463Z,31.42
2022-12-01T04:46:26.140Z,32.88
2022-12-01T04:48:54.640Z,31.60
2022-12-01T04:51:26.598Z,32.78
2022-12-01T04:53:55.877Z,31.60
2022-12-01T04:56:24.759Z,34.28
2022-12-01T04:58:54.134Z,31.42
2022-12-01T05:01:22.503Z,34.33
2022-12-01T05:03:50.999Z,32.65
2022-12-01T05:06:23.367Z,32.67
2022-12-01T05:08:54.336Z,34.15
2022-12-01T05:11:23.704Z,31.08
2022-12-01T05:13:52.122Z,30.85
2022-12-01T05:16:32.079Z,31.10
2022-12-01T05:19:21.433Z,32.38
2022-12-01T05:21:51.176Z,31.05
2022-12-01T05:24:21.177Z,31.30
2022-12-01T05:26:50.398Z,31.13
2022-12-01T05:29:19.888Z,31.35
2022-12-01T05:31:49.162Z,31.23
2022-12-01T05:34:17.709Z,32.83
2022-12-01T05:36:46.476Z,31.35
2022-12-01T05:39:14.939Z,31.42
2022-12-01T05:41:43.426Z,30.58
2022-12-01T05:44:11.999Z,31.95
2022-12-01T05:46:40.371Z,31.05
2022-12-01T05:49:11.017Z,29.75
2022-12-01T05:51:39.449Z,30.60
2022-12-01T05:54:07.743Z,31.35
2022-12-01T05:56:38.191Z,32.42
2022-12-01T05:59:07.840Z,30.55
2022-12-01T06:01:36.346Z,30.40
2022-12-01T06:04:05.023Z,31.38
2022-12-01T06:06:35.518Z,30.52
2022-12-01T06:09:03.878Z,31.25
2022-12-01T06:11:32.353Z,28.65
2022-12-01T06:14:01.761Z,28.67
2022-12-01T06:16:30.126Z,31.13
2022-12-01T06:18:58.521Z,29.30
2022-12-01T06:21:26.899Z,29.88
2022-12-01T06:23:57.326Z,28.55
2022-12-01T06:26:25.660Z,31.27
2022-12-01T06:28:54.033Z,30.15
2022-12-01T06:31:22.483Z,30.17
2022-12-01T06:33:51.010Z,30.60
2022-12-01T06:36:19.368Z,32.70
2022-12-01T06:38:47.998Z,31.02
2022-12-01T06:41:16.345Z,29.88
2022-12-01T06:43:44.787Z,28.48
2022-12-01T06:46:13.431Z,29.60
2022-12-01T06:48:41.867Z,27.42
2022-12-01T06:51:11.112Z,29.38
2022-12-01T06:53:39.625Z,29.70
2022-12-01T06:56:08.181Z,27.70
2022-12-01T06:58:36.641Z,27.83
2022-12-01T07:01:10.418Z,28.58
2022-12-01T07:03:40.912Z,28.75
2022-12-01T07:06:09.925Z,28.85
2022-12-01T07:08:39.073Z,29.63
2022-12-01T07:11:12.567Z,28.10
2022-12-01T07:13:42.504Z,27.23
2022-12-01T07:16:13.004Z,27.95
2022-12-01T07:18:42.944Z,26.98
2022-12-01T07:21:13.626Z,28.30
2022-12-01T07:23:42.888Z,27.48
2022-12-01T07:26:14.152Z,28.35
2022-12-01T07:28:43.034Z,29.55
2022-12-01T07:31:13.845Z,28.63
2022-12-01T07:33:42.835Z,28.05
2022-12-01T07:36:12.802Z,26.70
2022-12-01T07:38:42.858Z,27.33
2022-12-01T07:41:16.387Z,27.40
2022-12-01T07:43:45.299Z,27.60
2022-12-01T07:46:22.192Z,26.33
2022-12-01T07:48:53.768Z,26.70
2022-12-01T07:51:24.429Z,27.10
2022-12-01T07:56:23.600Z,26.55
2022-12-01T07:58:53.828Z,27.92
2022-12-01T08:01:24.930Z,28.40
2022-12-01T08:03:57.293Z,27.67
2022-12-01T08:06:26.718Z,26.45
2022-12-01T08:08:57.808Z,27.48
2022-12-01T08:11:29.594Z,26.23
2022-12-01T08:13:58.099Z,26.98
2022-12-01T08:16:26.565Z,26.35
2022-12-01T08:18:59.376Z,26.30
2022-12-01T08:21:27.754Z,24.38
2022-12-01T08:23:59.226Z,24.40
2022-12-01T08:26:27.657Z,24.48
2022-12-01T08:28:56.848Z,25.20
2022-12-01T08:31:28.487Z,26.10
2022-12-01T08:33:57.934Z,25.13
2022-12-01T08:36:26.648Z,22.40
2022-12-01T08:38:56.824Z,26.05
2022-12-01T08:41:25.564Z,26.50
2022-12-01T08:43:59.038Z,25.80
2022-12-01T08:46:34.258Z,25.85
2022-12-01T08:49:05.036Z,25.05
2022-12-01T08:51:33.638Z,26.30
2022-12-01T08:54:02.487Z,27.10
2022-12-01T08:56:35.238Z,27.63
2022-12-01T08:59:04.291Z,29.15
2022-12-01T09:01:35.784Z,30.92
2022-12-01T09:04:06.186Z,31.40
2022-12-01T09:06:40.736Z,28.95
2022-12-01T09:09:12.423Z,29.08
2022-12-01T09:11:43.638Z,28.38
2022-12-01T09:14:13.463Z,28.48
2022-12-01T09:16:43.431Z,30.53
2022-12-01T09:19:13.470Z,30.15
2022-12-01T09:21:43.437Z,27.30
2022-12-01T09:24:14.219Z,28.20
2022-12-01T09:26:45.667Z,27.10
2022-12-01T09:29:15.822Z,30.90
2022-12-01T09:31:49.816Z,31.88
2022-12-01T09:34:19.849Z,29.25
2022-12-01T09:36:48.951Z,29.38
2022-12-01T09:39:21.063Z,29.40
2022-12-01T09:42:04.984Z,30.55
2022-12-01T09:44:45.574Z,31.15
2022-12-01T09:47:34.591Z,29.48
2022-12-01T09:50:16.564Z,28.38
2022-12-01T09:52:53.588Z,30.30
2022-12-01T09:55:24.775Z,27.58
2022-12-01T09:57:55.760Z,28.98
2022-12-01T10:00:35.634Z,26.33
2022-12-01T10:03:45.054Z,29.57
2022-12-01T10:06:28.434Z,29.17
2022-12-01T10:09:10.869Z,28.20
2022-12-01T10:11:45.199Z,27.70
2022-12-01T10:14:20.768Z,29.50
2022-12-01T10:17:28.302Z,29.42
2022-12-01T10:19:56.946Z,28.98
2022-12-01T10:22:41.082Z,28.98
2022-12-01T10:25:26.860Z,27.88
2022-12-01T10:28:12.808Z,29.02
2022-12-01T10:30:50.603Z,29.83
2022-12-01T10:33:26.243Z,28.52
2022-12-01T10:35:54.791Z,29.42
2022-12-01T10:38:31.825Z,28.58
2022-12-01T10:41:07.543Z,29.20
2022-12-01T10:43:49.368Z,30.33
2022-12-01T10:46:24.548Z,28.73
2022-12-01T10:48:58.557Z,28.88
2022-12-01T10:51:28.215Z,29.23
2022-12-01T10:54:07.866Z,28.13
2022-12-01T10:56:41.390Z,30.77
2022-12-01T10:59:32.977Z,28.33
2022-12-01T11:02:03.505Z,28.65
2022-12-01T11:04:35.493Z,28.83
2022-12-01T11:07:04.310Z,29.77
2022-12-01T11:09:32.795Z,28.00
2022-12-01T11:12:04.964Z,29.60
2022-12-01T11:14:53.172Z,28.38
2022-12-01T11:17:44.927Z,28.75
2022-12-01T11:20:31.694Z,28.85
2022-12-01T11:23:24.574Z,26.55
2022-12-01T11:25:55.943Z,28.35
2022-12-01T11:28:25.005Z,26.85
2022-12-01T11:31:07.169Z,28.05
2022-12-01T11:33:53.996Z,27.42
2022-12-01T11:36:28.494Z,27.80
2022-12-01T11:38:59.508Z,29.13
2022-12-01T11:41:39.478Z,28.98
2022-12-01T11:47:25.234Z,25.85
2022-12-01T11:49:59.788Z,27.00
2022-12-01T11:52:45.205Z,26.70
2022-12-01T11:55:13.666Z,25.40
2022-12-01T11:57:45.933Z,24.73
2022-12-01T12:00:20.825Z,24.70
2022-12-01T12:02:58.287Z,25.45
2022-12-01T12:05:49.836Z,25.63
2022-12-01T12:08:52.720Z,25.95
2022-12-01T12:11:27.870Z,24.92
2022-12-01T12:14:16.612Z,25.52
2022-12-01T12:17:04.239Z,25.90
2022-12-01T12:20:08.500Z,26.05
2022-12-01T12:22:44.761Z,27.27
2022-12-01T12:25:35.154Z,28.42
2022-12-01T12:28:35.371Z,27.20
2022-12-01T12:31:06.771Z,28.38
2022-12-01T12:34:02.446Z,27.55
2022-12-01T12:37:18.647Z,28.17
2022-12-01T12:40:08.568Z,29.70
2022-12-01T12:42:57.484Z,27.77
2022-12-01T12:46:00.262Z,28.15
2022-12-01T12:49:12.144Z,28.25
2022-12-01T12:51:49.378Z,28.08
2022-12-01T12:54:31.976Z,27.38
2022-12-01T12:57:07.497Z,27.55
2022-12-01T12:59:53.886Z,30.90
2022-12-01T13:02:31.849Z,28.92
2022-12-01T13:05:12.767Z,28.77
2022-12-01T13:08:06.204Z,28.33
2022-12-01T13:10:44.600Z,28.23
2022-12-01T13:13:44.491Z,31.15
2022-12-01T13:16:21.712Z,27.45
2022-12-01T13:18:57.422Z,30.20
2022-12-01T13:21:37.970Z,30.60
2022-12-01T13:24:07.830Z,30.15
2022-12-01T13:26:42.216Z,24.08
2022-12-01T13:29:17.136Z,32.70
2022-12-01T13:31:49.762Z,30.70
2022-12-01T13:34:40.978Z,31.80
2022-12-01T13:37:10.920Z,32.42
2022-12-01T13:39:41.707Z,33.40
2022-12-01T13:42:25.549Z,34.22
2022-12-01T13:45:09.630Z,35.00
2022-12-01T13:47:49.279Z,34.60
2022-12-01T13:50:36.634Z,34.63
2022-12-01T13:53:14.835Z,36.03
2022-12-01T13:56:01.196Z,36.33
2022-12-01T13:58:35.585Z,38.00
2022-12-01T14:01:22.836Z,36.42
2022-12-01T14:03:54.067Z,37.35
2022-12-01T14:06:25.317Z,38.42
2022-12-01T14:09:00.496Z,35.63
2022-12-01T14:11:30.836Z,40.38
2022-12-01T14:14:12.243Z,38.17
2022-12-01T14:16:47.100Z,39.25
2022-12-01T14:19:46.191Z,40.80
2022-12-01T14:22:33.695Z,36.22
2022-12-01T14:25:05.623Z,34.67
2022-12-01T14:27:44.018Z,35.92
2022-12-01T14:30:46.873Z,35.78
2022-12-01T14:33:45.913Z,37.28
2022-12-01T14:36:21.145Z,35.97
2022-12-01T14:39:17.786Z,37.40
2022-12-01T14:41:56.804Z,37.85
2022-12-01T14:44:38.068Z,38.22
2022-12-01T14:47:12.580Z,36.30
2022-12-01T14:50:13.382Z,36.38
2022-12-01T14:52:49.555Z,37.05
2022-12-01T14:55:43.389Z,37.25
2022-12-01T14:58:20.025Z,37.22
2022-12-01T15:01:15.128Z,36.63
2022-12-01T15:03:56.881Z,36.55
2022-12-01T15:06:27.292Z,36.58
2022-12-01T15:09:34.460Z,35.88
2022-12-01T15:12:09.295Z,37.45
2022-12-01T15:14:49.638Z,35.08
2022-12-01T15:17:34.804Z,37.83
2022-12-01T15:20:05.240Z,37.30
2022-12-01T15:22:35.321Z,37.13
2022-12-01T15:25:13.437Z,37.30
2022-12-01T15:27:43.879Z,34.80
2022-12-01T15:30:15.491Z,33.22
2022-12-01T15:32:46.377Z,33.10
2022-12-01T15:35:22.916Z,33.40
2022-12-01T15:37:54.365Z,32.55
2022-12-01T15:43:25.550Z,33.80
2022-12-01T15:45:57.906Z,34.38
2022-12-01T15:48:27.106Z,33.15
2022-12-01T15:51:00.900Z,33.25
2022-12-01T15:53:33.566Z,32.85
2022-12-01T15:56:08.824Z,31.45
2022-12-01T15:58:44.255Z,34.60
2022-12-01T16:01:19.042Z,33.03
2022-12-01T16:04:04.691Z,35.28
2022-12-01T16:06:38.998Z,33.40
2022-12-01T16:09:21.321Z,32.78
2022-12-01T16:12:26.303Z,33.03
2022-12-01T16:15:01.952Z,31.55
2022-12-01T16:17:44.261Z,30.02
2022-12-01T16:20:22.800Z,31.98
2022-12-01T16:23:04.161Z,30.27
2022-12-01T16:25:45.811Z,29.60
2022-12-01T16:28:36.121Z,30.40
2022-12-01T16:31:06.433Z,32.38
2022-12-01T16:36:07.057Z,31.25
2022-12-01T16:38:36.157Z,31.25
2022-12-01T16:41:38.400Z,31.20
2022-12-01T16:44:27.719Z,32.00
2022-12-01T16:46:55.842Z,33.28
2022-12-01T16:49:24.218Z,32.75
2022-12-01T16:51:57.041Z,29.52
2022-12-01T16:54:26.694Z,33.47
2022-12-01T16:56:55.759Z,32.25
2022-12-01T16:59:25.135Z,30.33
2022-12-01T17:01:54.857Z,29.90
2022-12-01T17:06:52.879Z,30.90
2022-12-01T17:09:24.462Z,32.65
2022-12-01T17:11:56.860Z,30.38
2022-12-01T17:14:25.942Z,30.63
2022-12-01T17:16:57.431Z,33.10
2022-12-01T17:19:26.094Z,33.13
2022-12-01T17:21:55.928Z,31.02
2022-12-01T17:24:25.942Z,32.03
2022-12-01T17:26:54.302Z,30.02
2022-12-01T17:29:26.444Z,30.75
2022-12-01T17:31:54.789Z,30.05
2022-12-01T17:34:26.589Z,29.30
2022-12-01T17:36:54.971Z,30.77
2022-12-01T17:39:25.250Z,29.20
2022-12-01T17:41:55.710Z,32.00
2022-12-01T17:44:24.093Z,29.38
2022-12-01T17:46:52.652Z,30.85
2022-12-01T17:49:21.166Z,29.73
2022-12-01T17:51:49.839Z,31.02
2022-12-01T17:54:25.005Z,30.25
2022-12-01T17:56:54.566Z,32.92
2022-12-01T17:59:23.192Z,32.15
2022-12-01T18:01:51.698Z,32.78
2022-12-01T18:04:20.266Z,31.70
2022-12-01T18:06:53.799Z,33.00
2022-12-01T18:09:22.851Z,30.67
2022-12-01T18:11:51.315Z,32.50
2022-12-01T18:14:21.191Z,34.05
2022-12-01T18:16:49.578Z,26.33
2022-12-01T18:19:18.481Z,30.02
2022-12-01T18:21:46.959Z,31.75
2022-12-01T18:24:17.801Z,34.47
2022-12-01T18:26:46.212Z,31.13
2022-12-01T18:29:26.386Z,32.30
2022-12-01T18:31:57.491Z,30.88
2022-12-01T18:34:29.636Z,31.27
2022-12-01T18:36:58.461Z,30.17
2022-12-01T18:39:26.947Z,30.60
2022-12-01T18:41:58.573Z,31.45
2022-12-01T18:44:27.230Z,31.90
2022-12-01T18:46:57.394Z,30.77
2022-12-01T18:49:26.027Z,28.15
2022-12-01T18:51:54.543Z,28.30
2022-12-01T18:54:23.159Z,27.33
2022-12-01T18:56:53.675Z,26.85
2022-12-01T18:59:22.148Z,24.85
2022-12-01T19:01:55.020Z,26.38
2022-12-01T19:04:24.301Z,25.63
2022-12-01T19:06:52.737Z,26.42
2022-12-01T19:09:22.909Z,27.45
2022-12-01T19:11:59.704Z,25.00
2022-12-01T19:14:29.161Z,21.90
2022-12-01T19:16:57.687Z,24.83
2022-12-01T19:19:26.549Z,22.35
2022-12-01T19:21:54.984Z,22.77
2022-12-01T19:24:26.904Z,22.95
2022-12-01T19:26:56.796Z,23.08
2022-12-01T19:31:54.405Z,21.13
2022-12-01T19:34:25.038Z,22.15
2022-12-01T19:36:53.924Z,23.35
2022-12-01T19:39:23.499Z,22.92
2022-12-01T19:41:51.967Z,20.88
2022-12-01T19:44:25.268Z,22.83
2022-12-01T19:46:54.155Z,21.38
2022-12-01T19:49:22.611Z,22.08
2022-12-01T19:51:51.194Z,21.48
2022-12-01T19:54:20.165Z,20.90
2022-12-01T19:56:49.361Z,22.92
2022-12-01T19:59:18.100Z,22.20
2022-12-01T20:01:46.711Z,22.33
2022-12-01T20:04:18.374Z,25.20
2022-12-01T20:06:46.682Z,23.88
2022-12-01T20:09:14.984Z,24.45
2022-12-01T20:11:43.442Z,22.73
2022-12-01T20:14:13.023Z,21.90
2022-12-01T20:16:41.404Z,21.77
2022-12-01T20:19:10.469Z,23.67
2022-12-01T20:21:42.546Z,21.90
2022-12-01T20:24:14.771Z,22.70
2022-12-01T20:26:50.969Z,23.13
2022-12-01T20:29:28.282Z,21.95
2022-12-01T20:31:58.701Z,22.73
2022-12-01T20:34:31.511Z,22.83
2022-12-01T20:37:00.514Z,23.98
2022-12-01T20:39:32.015Z,24.48
2022-12-01T20:42:01.176Z,22.88
2022-12-01T20:44:29.446Z,24.05
2022-12-01T20:46:57.916Z,22.27
2022-12-01T20:49:26.629Z,24.02
2022-12-01T20:51:57.807Z,23.05
2022-12-01T20:54:28.387Z,20.98
2022-12-01T20:56:58.441Z,23.95
2022-12-01T20:59:27.269Z,21.73
2022-12-01T21:01:56.105Z,22.70
2022-12-01T21:04:24.508Z,24.27
2022-12-01T21:06:59.143Z,23.35
2022-12-01T21:09:27.660Z,24.13
2022-12-01T21:12:17.283Z,23.13
2022-12-01T21:14:52.954Z,23.40
2022-12-01T21:17:36.067Z,23.38
2022-12-01T21:20:12.958Z,22.30
2022-12-01T21:22:41.806Z,23.13
2022-12-01T21:25:15.468Z,22.38
2022-12-01T21:27:43.831Z,20.83
2022-12-01T21:30:22.253Z,20.95
2022-12-01T21:32:50.793Z,22.35
2022-12-01T21:35:27.101Z,21.48
2022-12-01T21:38:01.992Z,21.75
2022-12-01T21:40:31.287Z,22.20
2022-12-01T21:43:38.360Z,21.52
2022-12-01T21:46:18.117Z,20.77
2022-12-01T21:48:49.490Z,19.83
2022-12-01T21:51:23.309Z,20.92
2022-12-01T21:53:55.870Z,21.13
2022-12-01T21:56:27.279Z,20.27
2022-12-01T21:59:02.700Z,19.42
2022-12-01T22:01:32.852Z,20.92
2022-12-01T22:04:15.367Z,19.92
2022-12-01T22:06:49.917Z,20.75
2022-12-01T22:09:27.373Z,19.75
2022-12-01T22:12:21.523Z,19.33
2022-12-01T22:14:50.515Z,17.38
2022-12-01T22:17:20.884Z,18.85
2022-12-01T22:19:57.139Z,19.40
2022-12-01T22:22:28.180Z,20.30
2022-12-01T22:25:01.593Z,19.17
2022-12-01T22:27:43.864Z,19.65
2022-12-01T22:30:23.538Z,18.77
2022-12-01T22:33:05.736Z,20.15
2022-12-01T22:35:45.647Z,19.75
2022-12-01T22:38:22.131Z,20.88
2022-12-01T22:41:12.414Z,19.40
2022-12-01T22:43:57.472Z,19.48
2022-12-01T22:46:40.054Z,19.33
2022-12-01T22:49:19.513Z,20.25
2022-12-01T22:51:53.741Z,19.52
2022-12-01T22:54:42.922Z,18.02
2022-12-01T22:57:23.914Z,20.13
2022-12-01T22:59:54.201Z,20.55
2022-12-01T23:02:27.296Z,19.85
2022-12-01T23:05:19.711Z,20.17
2022-12-01T23:07:50.963Z,19.58
2022-12-01T23:10:25.424Z,19.67
2022-12-01T23:12:57.137Z,20.40
2022-12-01T23:15:27.877Z,18.92
2022-12-01T23:20:31.832Z,18.40
2022-12-01T23:23:03.950Z,18.58
2022-12-01T23:25:34.944Z,19.15
2022-12-01T23:28:06.477Z,16.92
2022-12-01T23:30:42.839Z,17.33
2022-12-01T23:33:23.221Z,18.10
2022-12-01T23:36:02.063Z,18.98
2022-12-01T23:38:38.759Z,16.65
2022-12-01T23:41:12.780Z,18.73
2022-12-01T23:43:44.377Z,20.20
2022-12-01T23:46:16.590Z,16.83
2022-12-01T23:49:07.316Z,17.77
2022-12-01T23:51:38.578Z,17.00
2022-12-01T23:54:28.858Z,17.65
2022-12-01T23:57:21.933Z,17.35
2022-12-01T23:59:54.567Z,18.02
